createdAt,value
2023-03-17T00:00:47.309Z,2.19
2023-03-17T00:03:30.348Z,2.10
2023-03-17T00:06:00.500Z,2.11
2023-03-17T00:08:34.563Z,2.04
2023-03-17T00:11:02.776Z,2.05
2023-03-17T00:13:33.839Z,1.96
2023-03-17T00:16:07.600Z,1.97
2023-03-17T00:18:35.599Z,2.01
2023-03-17T00:21:03.201Z,2.02
2023-03-17T00:23:30.670Z,2.04
2023-03-17T00:25:58.207Z,2.01
2023-03-17T00:28:28.118Z,2.00
2023-03-17T00:31:01.076Z,2.04
2023-03-17T00:33:33.384Z,2.07
2023-03-17T00:36:01.788Z,2.11
2023-03-17T00:38:29.812Z,2.12
2023-03-17T00:40:57.312Z,2.10
2023-03-17T00:43:24.772Z,2.09
2023-03-17T00:45:52.398Z,2.07
2023-03-17T00:48:21.887Z,2.05
2023-03-17T00:50:51.049Z,2.01
2023-03-17T00:53:21.750Z,2.02
2023-03-17T00:55:50.103Z,2.02
2023-03-17T00:58:33.561Z,2.01
2023-03-17T01:01:02.370Z,2.03
2023-03-17T01:03:29.869Z,2.02
2023-03-17T01:05:57.973Z,2.00
2023-03-17T01:08:26.331Z,1.99
2023-03-17T01:10:54.719Z,1.93
2023-03-17T01:13:22.260Z,1.92
2023-03-17T01:15:51.380Z,1.82
2023-03-17T01:18:22.890Z,1.83
2023-03-17T01:20:51.896Z,1.83
2023-03-17T01:23:19.270Z,1.72
2023-03-17T01:25:46.867Z,1.64
2023-03-17T01:28:18.087Z,1.49
2023-03-17T01:30:47.086Z,1.49
2023-03-17T01:33:15.191Z,1.52
2023-03-17T01:35:45.946Z,1.51
2023-03-17T01:38:14.225Z,1.57
2023-03-17T01:40:50.645Z,1.59
2023-03-17T01:43:30.903Z,1.51
2023-03-17T01:46:31.194Z,1.50
2023-03-17T01:49:37.591Z,1.46
2023-03-17T01:52:21.975Z,1.43
2023-03-17T01:54:58.992Z,1.37
2023-03-17T01:57:56.573Z,1.43
2023-03-17T02:00:26.631Z,1.43
2023-03-17T02:02:57.137Z,1.42
2023-03-17T02:05:31.663Z,1.41
2023-03-17T02:08:00.260Z,1.28
2023-03-17T02:10:30.198Z,1.25
2023-03-17T02:13:05.710Z,1.32
2023-03-17T02:15:46.596Z,1.38
2023-03-17T02:18:15.100Z,1.38
2023-03-17T02:21:10.561Z,1.36
2023-03-17T02:23:38.102Z,1.34
2023-03-17T02:26:05.420Z,1.28
2023-03-17T02:28:34.437Z,1.34
2023-03-17T02:31:01.829Z,1.27
2023-03-17T02:33:29.362Z,1.27
2023-03-17T02:35:57.225Z,1.31
2023-03-17T02:38:24.834Z,1.30
2023-03-17T02:40:52.676Z,1.25
2023-03-17T02:43:20.782Z,1.29
2023-03-17T02:45:48.113Z,1.33
2023-03-17T02:48:16.106Z,1.27
2023-03-17T02:50:43.597Z,1.20
2023-03-17T02:53:11.309Z,1.30
2023-03-17T02:55:38.676Z,1.22
2023-03-17T02:58:06.281Z,1.24
2023-03-17T03:00:34.060Z,1.21
2023-03-17T03:03:01.629Z,1.20
2023-03-17T03:05:28.967Z,1.20
2023-03-17T03:07:56.593Z,1.14
2023-03-17T03:10:23.903Z,1.15
2023-03-17T03:12:52.166Z,1.20
2023-03-17T03:15:20.993Z,1.25
2023-03-17T03:17:48.659Z,1.21
2023-03-17T03:20:16.359Z,1.23
2023-03-17T03:22:43.965Z,1.27
2023-03-17T03:25:11.304Z,1.28
2023-03-17T03:27:38.837Z,1.29
2023-03-17T03:30:08.350Z,1.34
2023-03-17T03:32:35.911Z,1.22
2023-03-17T03:35:04.456Z,1.15
2023-03-17T03:37:32.068Z,1.11
2023-03-17T03:39:59.324Z,1.03
2023-03-17T03:42:26.918Z,1.00
2023-03-17T03:44:54.361Z,0.99
2023-03-17T03:47:21.990Z,0.96
2023-03-17T03:49:49.292Z,0.95
2023-03-17T03:52:16.884Z,1.00
2023-03-17T03:54:44.257Z,0.96
2023-03-17T03:57:12.059Z,0.87
2023-03-17T03:59:39.484Z,0.96
2023-03-17T04:02:09.536Z,0.85
2023-03-17T04:04:37.209Z,0.82
2023-03-17T04:07:04.942Z,0.84
2023-03-17T04:09:32.157Z,0.85
2023-03-17T04:11:59.987Z,0.93
2023-03-17T04:14:28.604Z,0.96
2023-03-17T04:16:56.361Z,1.02
2023-03-17T04:19:23.599Z,1.03
2023-03-17T04:21:53.579Z,1.03
2023-03-17T04:24:21.884Z,0.94
2023-03-17T04:26:49.450Z,0.91
2023-03-17T04:29:17.046Z,0.92
2023-03-17T04:31:44.747Z,0.89
2023-03-17T04:34:18.772Z,0.83
2023-03-17T04:36:48.378Z,0.85
2023-03-17T04:39:16.773Z,0.73
2023-03-17T04:41:44.321Z,0.71
2023-03-17T04:44:11.681Z,0.76
2023-03-17T04:46:39.401Z,0.80
2023-03-17T04:49:07.073Z,0.84
2023-03-17T04:51:36.880Z,0.89
2023-03-17T04:54:04.819Z,0.89
2023-03-17T04:56:32.705Z,0.91
2023-03-17T04:59:00.208Z,0.81
2023-03-17T05:01:27.921Z,0.87
2023-03-17T05:03:55.332Z,0.89
2023-03-17T05:06:23.079Z,1.06
2023-03-17T05:08:50.586Z,0.90
2023-03-17T05:11:18.471Z,0.93
2023-03-17T05:13:46.113Z,1.02
2023-03-17T05:16:13.969Z,0.96
2023-03-17T05:18:42.061Z,0.96
2023-03-17T05:21:10.689Z,0.93
2023-03-17T05:23:38.489Z,1.17
2023-03-17T05:26:06.722Z,1.11
2023-03-17T05:28:34.600Z,1.15
2023-03-17T05:31:02.663Z,1.18
2023-03-17T05:33:30.088Z,1.26
2023-03-17T05:35:57.681Z,1.33
2023-03-17T05:38:25.257Z,1.48
2023-03-17T05:40:52.996Z,1.60
2023-03-17T05:43:21.060Z,1.74
2023-03-17T05:45:50.703Z,1.79
2023-03-17T05:48:18.135Z,1.88
2023-03-17T05:50:46.043Z,1.98
2023-03-17T05:53:13.392Z,2.07
2023-03-17T05:55:41.558Z,2.12
2023-03-17T05:58:09.638Z,2.13
2023-03-17T06:00:37.909Z,2.25
2023-03-17T06:03:05.686Z,2.37
2023-03-17T06:05:33.875Z,2.48
2023-03-17T06:08:02.102Z,2.53
2023-03-17T06:10:29.953Z,2.72
2023-03-17T06:12:59.015Z,2.85
2023-03-17T06:15:26.728Z,3.02
2023-03-17T06:17:54.049Z,3.08
2023-03-17T06:20:22.108Z,3.23
2023-03-17T06:23:03.171Z,3.27
2023-03-17T06:25:35.579Z,3.34
2023-03-17T06:28:05.673Z,3.51
2023-03-17T06:30:35.425Z,3.51
2023-03-17T06:33:04.215Z,3.53
2023-03-17T06:35:33.410Z,3.60
2023-03-17T06:38:02.289Z,3.63
2023-03-17T06:40:30.599Z,3.67
2023-03-17T06:42:58.663Z,3.73
2023-03-17T06:45:26.772Z,3.75
2023-03-17T06:47:54.103Z,3.76
2023-03-17T06:50:21.902Z,3.82
2023-03-17T06:52:49.432Z,3.85
2023-03-17T06:55:17.659Z,3.89
2023-03-17T06:57:45.023Z,4.02
2023-03-17T07:00:14.329Z,4.20
2023-03-17T07:02:42.300Z,4.17
2023-03-17T07:05:10.245Z,4.21
2023-03-17T07:07:37.786Z,4.31
2023-03-17T07:10:07.060Z,4.39
2023-03-17T07:12:34.448Z,4.40
2023-03-17T07:15:02.148Z,4.47
2023-03-17T07:17:30.289Z,4.61
2023-03-17T07:19:57.841Z,4.77
2023-03-17T07:22:25.274Z,4.94
2023-03-17T07:24:53.339Z,5.22
2023-03-17T07:27:23.091Z,5.48
2023-03-17T07:29:51.364Z,5.89
2023-03-17T07:32:19.348Z,6.30
2023-03-17T07:34:46.879Z,8.66
2023-03-17T07:37:14.461Z,13.50
2023-03-17T07:39:42.082Z,16.87
2023-03-17T07:42:15.506Z,19.51
2023-03-17T07:44:43.394Z,21.69
2023-03-17T07:47:14.805Z,24.01
2023-03-17T07:49:42.664Z,25.28
2023-03-17T07:52:11.317Z,27.37
2023-03-17T07:54:42.657Z,28.46
2023-03-17T07:57:11.021Z,30.19
2023-03-17T07:59:41.732Z,30.63
2023-03-17T08:02:16.670Z,31.97
2023-03-17T08:04:46.033Z,33.06
2023-03-17T08:07:14.769Z,33.39
2023-03-17T08:09:42.788Z,34.48
2023-03-17T08:12:10.908Z,33.76
2023-03-17T08:14:38.479Z,35.25
2023-03-17T08:17:06.522Z,36.20
2023-03-17T08:19:34.181Z,37.25
2023-03-17T08:22:01.616Z,37.37
2023-03-17T08:24:29.530Z,37.58
2023-03-17T08:26:58.119Z,37.72
2023-03-17T08:29:28.503Z,38.37
2023-03-17T08:31:56.093Z,38.36
2023-03-17T08:34:24.409Z,39.10
2023-03-17T08:36:51.872Z,39.54
2023-03-17T08:39:20.634Z,39.09
2023-03-17T08:41:48.004Z,39.57
2023-03-17T08:44:16.713Z,38.79
2023-03-17T08:46:44.116Z,41.19
2023-03-17T08:49:13.003Z,41.17
2023-03-17T08:51:40.959Z,41.51
2023-03-17T08:54:08.829Z,42.54
2023-03-17T08:56:37.174Z,42.94
2023-03-17T08:59:07.190Z,44.62
2023-03-17T09:01:35.033Z,44.66
2023-03-17T09:04:03.319Z,45.13
2023-03-17T09:06:31.707Z,44.37
2023-03-17T09:09:00.477Z,43.03
2023-03-17T09:11:31.601Z,45.16
2023-03-17T09:14:00.240Z,45.06
2023-03-17T09:16:29.017Z,46.38
2023-03-17T09:18:56.721Z,47.43
2023-03-17T09:21:24.040Z,46.19
2023-03-17T09:23:51.634Z,46.23
2023-03-17T09:26:20.306Z,46.94
2023-03-17T09:28:47.948Z,47.45
2023-03-17T09:31:15.721Z,47.03
2023-03-17T09:33:43.960Z,47.77
2023-03-17T09:36:11.455Z,47.84
2023-03-17T09:38:39.717Z,48.04
2023-03-17T09:41:53.828Z,46.35
2023-03-17T09:44:38.630Z,48.06
2023-03-17T09:47:43.649Z,49.02
2023-03-17T09:50:22.747Z,48.52
2023-03-17T09:52:52.404Z,49.23
2023-03-17T09:55:32.973Z,47.91
2023-03-17T09:58:03.605Z,45.06
2023-03-17T10:00:31.892Z,45.70
2023-03-17T10:03:00.304Z,46.67
2023-03-17T10:05:36.867Z,46.47
2023-03-17T10:08:35.839Z,47.37
2023-03-17T10:11:16.951Z,46.13
2023-03-17T10:14:09.536Z,45.16
2023-03-17T10:17:09.405Z,46.40
2023-03-17T10:19:47.648Z,47.23
2023-03-17T10:22:28.038Z,43.94
2023-03-17T10:25:04.090Z,44.88
2023-03-17T10:27:37.623Z,44.19
2023-03-17T10:30:21.275Z,44.14
2023-03-17T10:32:50.514Z,42.86
2023-03-17T10:35:19.027Z,40.14
2023-03-17T10:37:48.385Z,39.78
2023-03-17T10:40:28.868Z,41.34
2023-03-17T10:43:07.813Z,42.02
2023-03-17T10:45:43.301Z,41.56
2023-03-17T10:48:20.323Z,42.65
2023-03-17T10:50:49.535Z,43.06
2023-03-17T10:53:30.602Z,44.11
2023-03-17T10:56:10.474Z,43.95
2023-03-17T10:58:49.198Z,43.89
2023-03-17T11:01:39.777Z,43.45
2023-03-17T11:04:35.834Z,42.06
2023-03-17T11:07:20.455Z,41.58
2023-03-17T11:09:57.376Z,42.56
2023-03-17T11:12:40.132Z,42.40
2023-03-17T11:15:17.861Z,42.41
2023-03-17T11:18:03.451Z,41.95
2023-03-17T11:20:54.852Z,40.46
2023-03-17T11:23:50.152Z,41.76
2023-03-17T11:26:54.742Z,42.53
2023-03-17T11:29:39.919Z,42.32
2023-03-17T11:32:32.545Z,41.94
2023-03-17T11:35:24.012Z,42.43
2023-03-17T11:38:21.322Z,40.65
2023-03-17T11:41:27.287Z,42.15
2023-03-17T11:44:22.183Z,42.34
2023-03-17T11:47:31.937Z,41.11
2023-03-17T11:50:18.661Z,40.96
2023-03-17T11:53:11.643Z,40.39
2023-03-17T11:56:06.770Z,41.59
2023-03-17T11:58:42.608Z,42.03
2023-03-17T12:01:44.266Z,38.96
2023-03-17T12:04:25.957Z,40.06
2023-03-17T12:07:04.559Z,39.98
2023-03-17T12:09:47.408Z,38.12
2023-03-17T12:12:28.163Z,39.33
2023-03-17T12:14:59.661Z,39.04
2023-03-17T12:17:50.952Z,37.90
2023-03-17T12:20:31.632Z,36.85
2023-03-17T12:23:30.168Z,34.91
2023-03-17T12:26:07.560Z,36.51
2023-03-17T12:28:48.625Z,37.13
2023-03-17T12:31:32.008Z,37.87
2023-03-17T12:34:28.859Z,38.78
2023-03-17T12:36:56.359Z,37.73
2023-03-17T12:39:35.146Z,38.94
2023-03-17T12:42:36.574Z,37.78
2023-03-17T12:45:22.502Z,36.38
2023-03-17T12:48:21.495Z,35.51
2023-03-17T12:51:12.543Z,36.38
2023-03-17T12:53:45.114Z,36.81
2023-03-17T12:56:19.326Z,36.14
2023-03-17T12:58:51.829Z,34.02
2023-03-17T13:01:32.946Z,32.68
2023-03-17T13:04:14.015Z,33.13
2023-03-17T13:06:53.679Z,33.83
2023-03-17T13:09:45.283Z,32.18
2023-03-17T13:12:41.668Z,32.02
2023-03-17T13:15:38.209Z,32.02
2023-03-17T13:18:17.801Z,30.94
2023-03-17T13:20:57.510Z,31.21
2023-03-17T13:24:15.881Z,31.09
2023-03-17T13:27:02.140Z,30.96
2023-03-17T13:29:35.582Z,30.05
2023-03-17T13:32:26.818Z,30.59
2023-03-17T13:35:02.276Z,31.10
2023-03-17T13:37:58.925Z,30.20
2023-03-17T13:41:07.105Z,29.71
2023-03-17T13:44:26.773Z,29.78
2023-03-17T13:46:54.858Z,29.94
2023-03-17T13:49:32.563Z,28.35
2023-03-17T13:52:13.654Z,28.79
2023-03-17T13:55:19.027Z,28.83
2023-03-17T13:58:11.159Z,28.73
2023-03-17T14:00:49.483Z,28.86
2023-03-17T14:03:43.918Z,28.72
2023-03-17T14:06:14.425Z,28.49
2023-03-17T14:08:55.083Z,27.89
2023-03-17T14:11:35.569Z,27.23
2023-03-17T14:14:33.041Z,27.26
2023-03-17T14:17:12.424Z,27.20
2023-03-17T14:19:41.894Z,27.07
2023-03-17T14:22:45.916Z,27.34
2023-03-17T14:25:21.656Z,26.98
2023-03-17T14:27:57.018Z,26.26
2023-03-17T14:30:33.156Z,24.85
2023-03-17T14:33:20.571Z,24.84
2023-03-17T14:35:53.937Z,25.42
2023-03-17T14:38:31.304Z,25.60
2023-03-17T14:41:07.995Z,25.98
2023-03-17T14:43:36.905Z,25.64
2023-03-17T14:46:08.183Z,26.13
2023-03-17T14:48:40.352Z,26.30
2023-03-17T14:51:14.501Z,24.99
2023-03-17T14:53:46.573Z,23.43
2023-03-17T14:56:14.698Z,24.07
2023-03-17T14:58:48.612Z,23.88
2023-03-17T15:01:32.540Z,23.14
2023-03-17T15:04:06.319Z,23.05
2023-03-17T15:06:37.424Z,22.88
2023-03-17T15:09:38.566Z,22.49
2023-03-17T15:12:26.712Z,21.93
2023-03-17T15:15:00.842Z,21.85
2023-03-17T15:17:34.857Z,21.33
2023-03-17T15:20:07.615Z,20.84
2023-03-17T15:22:35.369Z,20.17
2023-03-17T15:25:17.439Z,19.86
2023-03-17T15:27:45.842Z,19.78
2023-03-17T15:30:14.857Z,19.56
2023-03-17T15:32:42.790Z,19.20
2023-03-17T15:35:14.592Z,18.89
2023-03-17T15:37:42.828Z,18.43
2023-03-17T15:40:11.367Z,18.33
2023-03-17T15:42:39.870Z,18.34
2023-03-17T15:45:08.625Z,18.33
2023-03-17T15:47:40.035Z,18.19
2023-03-17T15:50:30.331Z,18.07
2023-03-17T15:52:58.121Z,18.06
2023-03-17T15:55:31.194Z,17.80
2023-03-17T15:57:59.814Z,17.56
2023-03-17T16:00:30.356Z,17.33
2023-03-17T16:03:18.833Z,17.11
2023-03-17T16:05:46.645Z,17.04
2023-03-17T16:08:15.760Z,16.96
2023-03-17T16:10:43.401Z,16.86
2023-03-17T16:13:11.926Z,16.67
2023-03-17T16:15:43.435Z,16.48
2023-03-17T16:18:18.347Z,16.22
2023-03-17T16:20:52.435Z,16.10
2023-03-17T16:23:27.202Z,16.03
2023-03-17T16:25:59.273Z,15.97
2023-03-17T16:28:33.045Z,15.87
2023-03-17T16:31:04.033Z,15.82
2023-03-17T16:33:40.403Z,15.71
2023-03-17T16:36:14.646Z,15.52
2023-03-17T16:38:42.745Z,15.36
2023-03-17T16:41:21.714Z,15.08
2023-03-17T16:43:59.599Z,15.02
2023-03-17T16:46:33.360Z,14.89
2023-03-17T16:49:02.282Z,14.70
2023-03-17T16:51:29.650Z,14.58
2023-03-17T16:53:57.288Z,14.39
2023-03-17T16:56:27.581Z,14.29
2023-03-17T16:58:55.300Z,14.13
2023-03-17T17:01:27.370Z,14.04
2023-03-17T17:03:56.112Z,13.96
2023-03-17T17:06:24.452Z,13.84
2023-03-17T17:08:52.985Z,13.55
2023-03-17T17:11:21.514Z,13.38
2023-03-17T17:13:50.167Z,13.38
2023-03-17T17:16:32.165Z,13.10
2023-03-17T17:19:01.334Z,13.14
2023-03-17T17:21:29.119Z,12.98
2023-03-17T17:23:57.093Z,12.89
2023-03-17T17:26:24.447Z,12.64
2023-03-17T17:28:52.209Z,12.63
2023-03-17T17:31:19.688Z,12.64
2023-03-17T17:33:47.346Z,12.53
2023-03-17T17:36:17.608Z,12.28
2023-03-17T17:38:45.452Z,12.12
2023-03-17T17:41:14.334Z,12.08
2023-03-17T17:43:42.141Z,12.17
2023-03-17T17:46:17.234Z,11.95
2023-03-17T17:48:45.393Z,11.96
2023-03-17T17:51:12.870Z,11.76
2023-03-17T17:53:41.005Z,11.60
2023-03-17T17:56:14.228Z,11.59
2023-03-17T17:58:43.134Z,11.49
2023-03-17T18:01:14.026Z,11.40
2023-03-17T18:03:43.086Z,11.33
2023-03-17T18:06:13.185Z,11.26
2023-03-17T18:08:41.557Z,11.23
2023-03-17T18:11:09.209Z,11.13
2023-03-17T18:13:39.088Z,11.09
2023-03-17T18:16:10.158Z,11.05
2023-03-17T18:18:40.736Z,11.09
2023-03-17T18:21:08.977Z,10.93
2023-03-17T18:23:36.727Z,10.89
2023-03-17T18:26:08.881Z,10.85
2023-03-17T18:28:36.829Z,10.86
2023-03-17T18:31:11.905Z,10.82
2023-03-17T18:33:43.564Z,10.76
2023-03-17T18:36:11.780Z,10.73
2023-03-17T18:38:40.525Z,10.68
2023-03-17T18:41:08.534Z,10.65
2023-03-17T18:43:36.220Z,10.72
2023-03-17T18:46:04.364Z,10.50
2023-03-17T18:48:32.012Z,10.36
2023-03-17T18:50:59.355Z,10.47
2023-03-17T18:53:27.151Z,10.51
2023-03-17T18:55:54.407Z,10.46
2023-03-17T18:58:21.984Z,10.40
2023-03-17T19:00:50.372Z,10.34
2023-03-17T19:03:18.842Z,10.23
2023-03-17T19:05:46.287Z,10.10
2023-03-17T19:08:16.131Z,10.09
2023-03-17T19:10:44.824Z,9.99
2023-03-17T19:13:14.302Z,10.03
2023-03-17T19:15:42.166Z,9.89
2023-03-17T19:18:09.861Z,9.86
2023-03-17T19:20:37.957Z,9.79
2023-03-17T19:23:06.023Z,9.58
2023-03-17T19:25:33.606Z,9.46
2023-03-17T19:28:03.287Z,9.60
2023-03-17T19:30:31.432Z,9.53
2023-03-17T19:32:59.299Z,9.50
2023-03-17T19:35:27.262Z,9.49
2023-03-17T19:37:54.907Z,9.46
2023-03-17T19:40:22.565Z,9.43
2023-03-17T19:42:51.171Z,9.41
2023-03-17T19:45:18.690Z,9.40
2023-03-17T19:47:47.133Z,9.33
2023-03-17T19:50:14.874Z,9.29
2023-03-17T19:52:42.610Z,9.30
2023-03-17T19:55:10.829Z,9.29
2023-03-17T19:57:39.061Z,9.17
2023-03-17T20:00:08.972Z,9.18
2023-03-17T20:02:36.848Z,9.16
2023-03-17T20:05:04.764Z,9.12
2023-03-17T20:07:33.097Z,9.07
2023-03-17T20:10:01.478Z,9.05
2023-03-17T20:12:32.964Z,9.02
2023-03-17T20:15:01.575Z,9.03
2023-03-17T20:17:29.277Z,8.98
2023-03-17T20:19:56.658Z,9.00
2023-03-17T20:22:24.743Z,8.97
2023-03-17T20:24:52.248Z,8.98
2023-03-17T20:27:20.597Z,8.92
2023-03-17T20:29:48.689Z,8.85
2023-03-17T20:32:17.402Z,8.61
2023-03-17T20:34:45.171Z,8.73
2023-03-17T20:37:14.296Z,8.73
2023-03-17T20:39:42.426Z,8.69
2023-03-17T20:42:14.577Z,8.58
2023-03-17T20:44:43.039Z,8.52
2023-03-17T20:47:11.496Z,8.45
2023-03-17T20:49:39.471Z,8.31
2023-03-17T20:52:08.571Z,8.33
2023-03-17T20:54:36.097Z,8.34
2023-03-17T20:57:04.878Z,8.26
2023-03-17T20:59:33.807Z,8.17
2023-03-17T21:02:02.501Z,8.14
2023-03-17T21:04:29.933Z,8.12
2023-03-17T21:06:57.595Z,8.03
2023-03-17T21:09:25.014Z,8.02
2023-03-17T21:11:52.619Z,7.77
2023-03-17T21:14:19.951Z,7.88
2023-03-17T21:16:47.940Z,7.89
2023-03-17T21:19:17.249Z,7.78
2023-03-17T21:21:45.800Z,7.77
2023-03-17T21:24:35.058Z,7.52
2023-03-17T21:27:06.589Z,7.59
2023-03-17T21:29:36.233Z,7.58
2023-03-17T21:32:07.275Z,7.56
2023-03-17T21:34:35.616Z,7.56
2023-03-17T21:37:03.380Z,7.45
2023-03-17T21:39:30.886Z,7.54
2023-03-17T21:41:58.488Z,7.50
2023-03-17T21:44:26.573Z,7.49
2023-03-17T21:46:56.586Z,7.45
2023-03-17T21:49:24.914Z,7.40
2023-03-17T21:51:52.331Z,7.44
2023-03-17T21:54:20.646Z,7.40
2023-03-17T21:56:49.562Z,7.38
2023-03-17T21:59:19.121Z,7.40
2023-03-17T22:01:47.379Z,7.35
2023-03-17T22:04:15.635Z,7.35
2023-03-17T22:06:43.461Z,7.38
2023-03-17T22:09:11.139Z,7.31
2023-03-17T22:11:38.528Z,7.28
2023-03-17T22:14:06.608Z,7.17
2023-03-17T22:16:34.136Z,7.22
2023-03-17T22:19:01.969Z,7.27
2023-03-17T22:21:29.237Z,7.18
2023-03-17T22:23:57.115Z,7.19
2023-03-17T22:26:24.391Z,7.14
2023-03-17T22:28:52.126Z,7.20
2023-03-17T22:31:27.313Z,7.13
2023-03-17T22:33:58.326Z,7.16
2023-03-17T22:36:27.188Z,7.06
2023-03-17T22:38:56.242Z,7.07
2023-03-17T22:41:27.235Z,7.13
2023-03-17T22:43:55.246Z,7.21
2023-03-17T22:46:22.830Z,7.02
2023-03-17T22:48:51.877Z,7.05
2023-03-17T22:51:23.570Z,6.93
2023-03-17T22:53:52.194Z,6.93
2023-03-17T22:56:20.448Z,7.01
2023-03-17T22:58:48.992Z,7.04
2023-03-17T23:01:18.398Z,6.94
2023-03-17T23:03:47.193Z,6.93
2023-03-17T23:06:15.155Z,6.83
2023-03-17T23:08:44.401Z,6.84
2023-03-17T23:11:18.674Z,6.85
2023-03-17T23:13:47.802Z,6.83
2023-03-17T23:16:15.993Z,6.82
2023-03-17T23:18:46.867Z,6.80
2023-03-17T23:21:30.606Z,6.74
2023-03-17T23:23:59.625Z,6.76
2023-03-17T23:26:28.786Z,6.74
2023-03-17T23:28:56.675Z,6.78
2023-03-17T23:31:24.887Z,6.80
2023-03-17T23:33:52.804Z,6.86
2023-03-17T23:36:21.478Z,6.88
2023-03-17T23:38:49.987Z,6.90
2023-03-17T23:41:17.751Z,6.80
2023-03-17T23:43:46.880Z,6.75
2023-03-17T23:46:14.813Z,6.77
2023-03-17T23:48:43.111Z,6.65
2023-03-17T23:51:12.568Z,6.61
2023-03-17T23:53:41.807Z,6.59
2023-03-17T23:56:11.569Z,6.62
2023-03-17T23:58:43.410Z,6.61
